createdAt,value
2023-02-18T00:02:32.988Z,-9.12
2023-02-18T00:07:36.149Z,-9.07
2023-02-18T00:12:38.676Z,-8.76
2023-02-18T00:17:48.356Z,-8.78
2023-02-18T00:22:50.567Z,-8.84
2023-02-18T00:27:52.728Z,-8.86
2023-02-18T00:32:54.982Z,-8.87
2023-02-18T00:37:57.135Z,-8.85
2023-02-18T00:42:59.251Z,-8.96
2023-02-18T00:48:01.489Z,-8.91
2023-02-18T00:53:03.904Z,-9.00
2023-02-18T00:58:06.099Z,-9.05
2023-02-18T01:03:09.215Z,-9.32
2023-02-18T01:08:12.387Z,-9.21
2023-02-18T01:13:16.224Z,-9.19
2023-02-18T01:18:20.468Z,-9.22
2023-02-18T01:23:23.338Z,-9.02
2023-02-18T01:28:26.244Z,-9.14
2023-02-18T01:33:28.449Z,-9.08
2023-02-18T01:38:30.655Z,-9.12
2023-02-18T01:43:33.345Z,-9.14
2023-02-18T01:49:08.274Z,-9.02
2023-02-18T01:54:31.198Z,-9.01
2023-02-18T01:59:41.552Z,-9.19
2023-02-18T02:04:43.898Z,-9.05
2023-02-18T02:09:47.184Z,-9.15
2023-02-18T02:15:08.058Z,-9.05
2023-02-18T02:20:34.932Z,-9.09
2023-02-18T02:26:27.040Z,-9.05
2023-02-18T02:31:48.685Z,-9.07
2023-02-18T02:36:55.686Z,-9.22
2023-02-18T02:42:23.539Z,-9.07
2023-02-18T02:47:33.270Z,-9.13
2023-02-18T02:52:41.753Z,-9.16
2023-02-18T02:57:47.557Z,-9.14
2023-02-18T03:03:00.673Z,-9.24
2023-02-18T03:08:32.243Z,-9.38
2023-02-18T03:13:46.819Z,-9.14
2023-02-18T03:19:12.903Z,-9.34
2023-02-18T03:24:21.273Z,-9.12
2023-02-18T03:29:23.924Z,-9.47
2023-02-18T03:34:30.303Z,-9.04
2023-02-18T03:39:35.833Z,-9.33
2023-02-18T03:44:39.313Z,-9.05
2023-02-18T03:49:41.600Z,-9.22
2023-02-18T03:54:43.803Z,-9.35
2023-02-18T03:59:46.100Z,-9.32
2023-02-18T04:04:48.221Z,-9.07
2023-02-18T04:09:50.510Z,-8.99
2023-02-18T04:14:52.684Z,-9.24
2023-02-18T04:19:54.841Z,-9.05
2023-02-18T04:24:57.093Z,-9.01
2023-02-18T04:29:59.262Z,-8.98
2023-02-18T04:35:01.432Z,-8.93
2023-02-18T04:40:03.859Z,-8.82
2023-02-18T04:45:06.563Z,-8.90
2023-02-18T04:50:09.439Z,-8.94
2023-02-18T04:55:11.627Z,-8.94
2023-02-18T05:00:17.388Z,-8.74
2023-02-18T05:05:19.544Z,-9.01
2023-02-18T05:10:21.725Z,-8.97
2023-02-18T05:15:23.837Z,-8.84
2023-02-18T05:20:26.007Z,-8.83
2023-02-18T05:25:28.240Z,-9.18
2023-02-18T05:30:30.444Z,-8.97
2023-02-18T05:35:32.682Z,-8.87
2023-02-18T05:40:34.871Z,-8.90
2023-02-18T05:45:37.530Z,-8.87
2023-02-18T05:50:39.917Z,-8.84
2023-02-18T05:55:42.137Z,-8.78
2023-02-18T06:00:44.351Z,-8.85
2023-02-18T06:05:50.450Z,-9.15
2023-02-18T06:10:52.734Z,-8.79
2023-02-18T06:15:55.368Z,-8.75
2023-02-18T06:20:57.554Z,-8.90
2023-02-18T06:25:59.819Z,-9.00
2023-02-18T06:31:02.186Z,-8.82
2023-02-18T06:36:11.855Z,-8.80
2023-02-18T06:41:15.389Z,-8.65
2023-02-18T06:46:17.802Z,-8.60
2023-02-18T06:51:20.036Z,-8.61
2023-02-18T06:56:22.245Z,-8.51
2023-02-18T07:01:24.412Z,-8.58
2023-02-18T07:06:26.624Z,-8.53
2023-02-18T07:11:28.850Z,-8.21
2023-02-18T07:16:31.144Z,-8.18
2023-02-18T07:21:33.443Z,-8.09
2023-02-18T07:26:35.924Z,-7.89
2023-02-18T07:31:39.026Z,-7.65
2023-02-18T07:36:41.371Z,-7.53
2023-02-18T07:41:43.518Z,-7.20
2023-02-18T07:46:50.598Z,-7.02
2023-02-18T07:51:52.801Z,-7.07
2023-02-18T07:56:57.778Z,-6.74
2023-02-18T08:02:00.008Z,-6.69
2023-02-18T08:07:02.269Z,-6.39
2023-02-18T08:12:04.765Z,-6.31
2023-02-18T08:17:06.941Z,-6.28
2023-02-18T08:22:10.682Z,-5.93
2023-02-18T08:27:14.871Z,-6.03
2023-02-18T08:32:17.197Z,-5.71
2023-02-18T08:37:19.631Z,-6.01
2023-02-18T08:42:22.358Z,-5.78
2023-02-18T08:48:18.201Z,-5.53
2023-02-18T08:52:47.681Z,-5.67
2023-02-18T08:57:50.598Z,-5.75
2023-02-18T09:02:52.824Z,-6.00
2023-02-18T09:07:55.107Z,-6.00
2023-02-18T09:12:57.453Z,-5.97
2023-02-18T09:18:00.119Z,-6.28
2023-02-18T09:23:03.877Z,-5.78
2023-02-18T09:28:06.050Z,-5.81
2023-02-18T09:33:08.226Z,-6.14
2023-02-18T09:38:12.088Z,-5.87
2023-02-18T09:43:34.277Z,-5.79
2023-02-18T09:48:37.949Z,-5.71
2023-02-18T09:53:42.692Z,-5.82
2023-02-18T09:58:47.417Z,-5.64
2023-02-18T10:03:50.017Z,-5.89
2023-02-18T10:08:53.321Z,-5.95
2023-02-18T10:13:56.053Z,-5.79
2023-02-18T10:19:00.683Z,-5.85
2023-02-18T10:24:35.261Z,-5.61
2023-02-18T10:29:37.557Z,-6.00
2023-02-18T10:34:53.792Z,-5.66
2023-02-18T10:40:18.519Z,-5.61
2023-02-18T10:45:34.529Z,-5.76
2023-02-18T10:50:44.662Z,-5.48
2023-02-18T10:55:51.337Z,-5.24
2023-02-18T11:00:54.135Z,-5.43
2023-02-18T11:05:57.225Z,-5.15
2023-02-18T11:11:00.103Z,-5.43
2023-02-18T11:16:06.102Z,-5.10
2023-02-18T11:21:26.948Z,-5.12
2023-02-18T11:26:32.158Z,-4.98
2023-02-18T11:31:44.679Z,-4.73
2023-02-18T11:36:47.965Z,-4.69
2023-02-18T11:42:05.462Z,-4.47
2023-02-18T11:47:20.370Z,-4.45
2023-02-18T11:52:27.971Z,-4.38
2023-02-18T11:57:31.272Z,-4.48
2023-02-18T12:02:38.465Z,-4.60
2023-02-18T12:07:47.309Z,-4.74
2023-02-18T12:13:03.478Z,-4.28
2023-02-18T12:18:27.826Z,-4.27
2023-02-18T12:23:39.031Z,-4.35
2023-02-18T12:29:26.260Z,-4.33
2023-02-18T12:34:45.432Z,-4.39
2023-02-18T12:40:04.458Z,-4.41
2023-02-18T12:45:28.359Z,-4.42
2023-02-18T12:50:42.626Z,-4.45
2023-02-18T12:56:09.571Z,-4.42
2023-02-18T13:01:31.115Z,-4.40
2023-02-18T13:06:36.048Z,-4.48
2023-02-18T13:12:05.828Z,-4.54
2023-02-18T13:17:09.837Z,-4.65
2023-02-18T13:22:13.770Z,-4.72
2023-02-18T13:27:34.736Z,-4.75
2023-02-18T13:32:41.106Z,-4.84
2023-02-18T13:38:04.507Z,-4.91
2023-02-18T13:43:29.561Z,-4.86
2023-02-18T13:48:36.045Z,-5.03
2023-02-18T13:53:43.065Z,-5.00
2023-02-18T13:59:17.726Z,-4.94
2023-02-18T14:04:44.656Z,-4.98
2023-02-18T14:09:47.164Z,-5.12
2023-02-18T14:14:49.462Z,-5.08
2023-02-18T14:20:03.631Z,-5.10
2023-02-18T14:25:09.193Z,-5.17
2023-02-18T14:30:28.665Z,-5.24
2023-02-18T14:35:55.347Z,-5.33
2023-02-18T14:41:19.735Z,-5.29
2023-02-18T14:46:30.970Z,-5.29
2023-02-18T14:51:34.582Z,-5.46
2023-02-18T14:56:51.544Z,-5.54
2023-02-18T15:01:55.848Z,-5.65
2023-02-18T15:07:00.513Z,-5.39
2023-02-18T15:12:07.650Z,-5.54
2023-02-18T15:17:22.570Z,-5.66
2023-02-18T15:22:26.956Z,-5.59
2023-02-18T15:27:35.336Z,-5.44
2023-02-18T15:32:37.460Z,-5.41
2023-02-18T15:37:44.500Z,-5.54
2023-02-18T15:42:49.430Z,-5.82
2023-02-18T15:47:54.659Z,-5.59
2023-02-18T15:52:59.969Z,-5.86
2023-02-18T15:58:12.188Z,-5.63
2023-02-18T16:03:28.696Z,-5.78
2023-02-18T16:08:37.981Z,-5.87
2023-02-18T16:13:46.827Z,-5.66
2023-02-18T16:18:49.240Z,-6.00
2023-02-18T16:23:58.885Z,-5.67
2023-02-18T16:29:07.388Z,-5.73
2023-02-18T16:34:09.992Z,-5.69
2023-02-18T16:39:15.432Z,-5.69
2023-02-18T16:44:18.338Z,-5.69
2023-02-18T16:49:21.359Z,-5.91
2023-02-18T16:54:34.214Z,-5.90
2023-02-18T16:59:37.395Z,-5.71
2023-02-18T17:04:40.205Z,-5.71
2023-02-18T17:09:44.465Z,-5.74
2023-02-18T17:14:48.047Z,-5.76
2023-02-18T17:19:51.876Z,-5.84
2023-02-18T17:24:54.535Z,-5.71
2023-02-18T17:30:02.535Z,-5.75
2023-02-18T17:35:06.346Z,-5.78
2023-02-18T17:40:17.383Z,-5.70
2023-02-18T17:45:36.573Z,-5.69
2023-02-18T17:50:42.800Z,-5.76
2023-02-18T18:12:20.140Z,-6.58
2023-02-18T18:17:22.345Z,-6.20
2023-02-18T18:22:24.539Z,-6.27
2023-02-18T18:27:26.676Z,-6.09
2023-02-18T18:32:28.854Z,-5.93
2023-02-18T18:37:31.019Z,-6.17
2023-02-18T18:42:36.058Z,-5.93
2023-02-18T18:47:38.378Z,-5.76
2023-02-18T18:52:43.643Z,-5.75
2023-02-18T18:57:47.250Z,-5.79
2023-02-18T19:02:49.743Z,-5.80
2023-02-18T19:07:52.463Z,-5.73
2023-02-18T19:13:09.266Z,-5.71
2023-02-18T19:18:14.498Z,-5.71
2023-02-18T19:23:16.668Z,-5.71
2023-02-18T19:28:20.779Z,-5.92
2023-02-18T19:33:23.120Z,-5.78
2023-02-18T19:38:25.293Z,-5.93
2023-02-18T19:43:27.590Z,-5.86
2023-02-18T19:48:29.866Z,-6.05
2023-02-18T19:53:32.135Z,-5.79
2023-02-18T19:58:34.922Z,-5.87
2023-02-18T20:03:37.491Z,-5.94
2023-02-18T20:08:39.662Z,-6.08
2023-02-18T20:13:42.367Z,-6.08
2023-02-18T20:18:44.607Z,-5.91
2023-02-18T20:23:46.885Z,-6.10
2023-02-18T20:28:50.955Z,-6.04
2023-02-18T20:33:56.664Z,-5.97
2023-02-18T20:39:07.593Z,-6.24
2023-02-18T20:44:17.756Z,-6.22
2023-02-18T20:49:21.722Z,-6.07
2023-02-18T20:54:24.039Z,-6.04
2023-02-18T20:59:26.747Z,-6.01
2023-02-18T21:04:28.984Z,-6.14
2023-02-18T21:09:31.320Z,-6.00
2023-02-18T21:14:33.566Z,-5.99
2023-02-18T21:19:35.754Z,-6.02
2023-02-18T21:24:37.900Z,-6.25
2023-02-18T21:29:40.137Z,-5.96
2023-02-18T21:34:42.276Z,-5.98
2023-02-18T21:39:44.472Z,-6.01
2023-02-18T21:44:49.770Z,-6.19
2023-02-18T21:49:51.849Z,-6.50
2023-02-18T21:54:54.104Z,-6.26
2023-02-18T21:59:56.277Z,-6.22
2023-02-18T22:04:58.775Z,-6.03
2023-02-18T22:10:01.164Z,-6.11
2023-02-18T22:15:04.652Z,-6.03
2023-02-18T22:20:16.030Z,-6.06
2023-02-18T22:25:18.184Z,-6.13
2023-02-18T22:30:20.670Z,-6.08
2023-02-18T22:35:22.826Z,-6.19
2023-02-18T22:40:25.074Z,-6.16
2023-02-18T22:46:01.480Z,-6.23
2023-02-18T22:51:31.377Z,-6.34
2023-02-18T22:56:33.656Z,-6.11
2023-02-18T23:01:40.345Z,-6.10
2023-02-18T23:06:44.092Z,-6.14
2023-02-18T23:11:49.339Z,-6.27
2023-02-18T23:17:13.640Z,-6.15
2023-02-18T23:22:25.200Z,-6.29
2023-02-18T23:27:27.902Z,-6.22
2023-02-18T23:32:30.930Z,-6.28
2023-02-18T23:37:51.598Z,-6.46
2023-02-18T23:42:54.334Z,-6.35
2023-02-18T23:53:37.181Z,-6.34
2023-02-18T23:58:40.121Z,-6.85
